sensor_id;sensor_type;location;lat;lon;timestamp;pressure;altitude;pressure_sealevel;temperature;humidity
64551;BME280;50945;44.472;-123.352;2022-09-16T00:00:32;100529.16;;;20.29;52.36
64551;BME280;50945;44.472;-123.352;2022-09-16T00:02:59;100523.63;;;20.29;52.47
64551;BME280;50945;44.472;-123.352;2022-09-16T00:05:25;100524.94;;;20.26;53.30
64551;BME280;50945;44.472;-123.352;2022-09-16T00:07:52;100517.72;;;20.25;52.67
64551;BME280;50945;44.472;-123.352;2022-09-16T00:10:18;100525.88;;;20.32;52.64
64551;BME280;50945;44.472;-123.352;2022-09-16T00:12:44;100519.88;;;20.23;53.66
64551;BME280;50945;44.472;-123.352;2022-09-16T00:15:11;100515.19;;;20.24;53.03
64551;BME280;50945;44.472;-123.352;2022-09-16T00:17:37;100514.94;;;20.25;53.20
64551;BME280;50945;44.472;-123.352;2022-09-16T00:20:05;100521.66;;;20.29;52.86
64551;BME280;50945;44.472;-123.352;2022-09-16T00:22:32;100523.84;;;20.27;52.86
64551;BME280;50945;44.472;-123.352;2022-09-16T00:24:58;100523.75;;;20.22;53.03
64551;BME280;50945;44.472;-123.352;2022-09-16T00:27:24;100523.63;;;20.17;53.08
64551;BME280;50945;44.472;-123.352;2022-09-16T00:29:51;100520.50;;;20.13;53.04
64551;BME280;50945;44.472;-123.352;2022-09-16T00:32:18;100524.59;;;20.11;53.28
64551;BME280;50945;44.472;-123.352;2022-09-16T00:34:48;100522.09;;;20.09;52.99
64551;BME280;50945;44.472;-123.352;2022-09-16T00:37:15;100529.06;;;20.00;53.36
64551;BME280;50945;44.472;-123.352;2022-09-16T00:39:41;100521.13;;;19.92;53.71
64551;BME280;50945;44.472;-123.352;2022-09-16T00:42:10;100525.38;;;19.83;53.68
64551;BME280;50945;44.472;-123.352;2022-09-16T00:44:58;100526.16;;;19.71;54.45
64551;BME280;50945;44.472;-123.352;2022-09-16T00:47:58;100524.97;;;19.67;54.37
64551;BME280;50945;44.472;-123.352;2022-09-16T00:50:39;100515.47;;;19.63;54.69
64551;BME280;50945;44.472;-123.352;2022-09-16T00:53:10;100525.31;;;19.59;54.48
64551;BME280;50945;44.472;-123.352;2022-09-16T00:55:39;100522.19;;;19.55;54.57
64551;BME280;50945;44.472;-123.352;2022-09-16T01:00:52;100531.94;;;19.46;54.61
64551;BME280;50945;44.472;-123.352;2022-09-16T01:03:18;100527.09;;;19.42;54.90
64551;BME280;50945;44.472;-123.352;2022-09-16T01:05:48;100531.91;;;19.34;55.15
64551;BME280;50945;44.472;-123.352;2022-09-16T01:08:15;100529.66;;;19.31;55.29
64551;BME280;50945;44.472;-123.352;2022-09-16T01:10:41;100527.34;;;19.28;55.18
64551;BME280;50945;44.472;-123.352;2022-09-16T01:13:11;100532.53;;;19.25;55.37
64551;BME280;50945;44.472;-123.352;2022-09-16T01:15:47;100529.16;;;19.23;55.48
64551;BME280;50945;44.472;-123.352;2022-09-16T01:18:39;100534.31;;;19.19;55.75
64551;BME280;50945;44.472;-123.352;2022-09-16T01:21:24;100531.41;;;19.14;55.88
64551;BME280;50945;44.472;-123.352;2022-09-16T01:24:09;100532.13;;;19.09;55.69
64551;BME280;50945;44.472;-123.352;2022-09-16T01:30:13;100530.63;;;18.95;56.46
64551;BME280;50945;44.472;-123.352;2022-09-16T01:41:08;100538.75;;;18.78;56.66
64551;BME280;50945;44.472;-123.352;2022-09-16T01:43:48;100545.59;;;18.75;56.39
64551;BME280;50945;44.472;-123.352;2022-09-16T01:46:21;100539.75;;;18.65;56.76
64551;BME280;50945;44.472;-123.352;2022-09-16T01:51:58;100537.94;;;18.59;56.75
64551;BME280;50945;44.472;-123.352;2022-09-16T01:54:44;100538.63;;;18.54;56.96
64551;BME280;50945;44.472;-123.352;2022-09-16T01:57:14;100547.25;;;18.46;57.27
64551;BME280;50945;44.472;-123.352;2022-09-16T01:59:54;100547.78;;;18.36;57.15
64551;BME280;50945;44.472;-123.352;2022-09-16T02:02:35;100545.97;;;18.30;57.73
64551;BME280;50945;44.472;-123.352;2022-09-16T02:05:09;100550.25;;;18.26;57.32
64551;BME280;50945;44.472;-123.352;2022-09-16T02:07:40;100551.56;;;18.23;57.29
64551;BME280;50945;44.472;-123.352;2022-09-16T02:10:28;100545.50;;;18.15;58.04
64551;BME280;50945;44.472;-123.352;2022-09-16T02:13:16;100550.66;;;18.11;58.23
64551;BME280;50945;44.472;-123.352;2022-09-16T02:15:47;100553.03;;;18.08;57.71
64551;BME280;50945;44.472;-123.352;2022-09-16T02:18:18;100548.66;;;18.00;57.62
64551;BME280;50945;44.472;-123.352;2022-09-16T02:20:48;100552.94;;;17.96;57.71
64551;BME280;50945;44.472;-123.352;2022-09-16T02:23:21;100557.84;;;17.94;57.58
64551;BME280;50945;44.472;-123.352;2022-09-16T02:25:49;100560.00;;;17.92;57.65
64551;BME280;50945;44.472;-123.352;2022-09-16T02:28:24;100559.38;;;17.90;57.76
64551;BME280;50945;44.472;-123.352;2022-09-16T02:30:55;100562.59;;;17.86;57.69
64551;BME280;50945;44.472;-123.352;2022-09-16T02:33:32;100560.25;;;17.83;57.93
64551;BME280;50945;44.472;-123.352;2022-09-16T02:36:01;100560.13;;;17.78;58.16
64551;BME280;50945;44.472;-123.352;2022-09-16T02:38:34;100565.25;;;17.75;58.02
64551;BME280;50945;44.472;-123.352;2022-09-16T02:41:04;100570.63;;;17.70;58.12
64551;BME280;50945;44.472;-123.352;2022-09-16T02:43:31;100572.72;;;17.67;58.37
64551;BME280;50945;44.472;-123.352;2022-09-16T02:46:14;100569.56;;;17.64;58.74
64551;BME280;50945;44.472;-123.352;2022-09-16T02:56:44;100582.44;;;17.52;58.34
64551;BME280;50945;44.472;-123.352;2022-09-16T02:59:12;100588.44;;;17.48;58.49
64551;BME280;50945;44.472;-123.352;2022-09-16T03:01:42;100576.97;;;17.45;58.46
64551;BME280;50945;44.472;-123.352;2022-09-16T03:04:11;100588.47;;;17.42;58.66
64551;BME280;50945;44.472;-123.352;2022-09-16T03:06:37;100586.38;;;17.37;58.75
64551;BME280;50945;44.472;-123.352;2022-09-16T03:09:06;100590.66;;;17.33;58.83
64551;BME280;50945;44.472;-123.352;2022-09-16T03:25:12;100602.06;;;17.12;60.06
64551;BME280;50945;44.472;-123.352;2022-09-16T03:27:52;100604.44;;;17.08;59.89
64551;BME280;50945;44.472;-123.352;2022-09-16T03:30:20;100609.38;;;16.99;61.04
64551;BME280;50945;44.472;-123.352;2022-09-16T03:33:42;100605.16;;;16.97;60.28
64551;BME280;50945;44.472;-123.352;2022-09-16T03:35:47;100614.50;;;16.96;59.75
64551;BME280;50945;44.472;-123.352;2022-09-16T03:38:14;100610.09;;;16.88;61.87
64551;BME280;50945;44.472;-123.352;2022-09-16T03:40:42;100614.72;;;16.87;59.81
64551;BME280;50945;44.472;-123.352;2022-09-16T03:43:11;100619.63;;;16.85;59.67
64551;BME280;50945;44.472;-123.352;2022-09-16T03:45:38;100629.19;;;16.83;59.76
64551;BME280;50945;44.472;-123.352;2022-09-16T03:48:09;100635.75;;;16.82;59.74
64551;BME280;50945;44.472;-123.352;2022-09-16T03:50:36;100633.84;;;16.82;59.94
64551;BME280;50945;44.472;-123.352;2022-09-16T03:53:03;100636.19;;;16.79;59.90
64551;BME280;50945;44.472;-123.352;2022-09-16T03:55:30;100637.50;;;16.76;60.11
64551;BME280;50945;44.472;-123.352;2022-09-16T03:57:56;100645.16;;;16.74;59.93
64551;BME280;50945;44.472;-123.352;2022-09-16T04:00:22;100643.25;;;16.68;60.33
64551;BME280;50945;44.472;-123.352;2022-09-16T04:02:49;100636.91;;;16.61;60.06
64551;BME280;50945;44.472;-123.352;2022-09-16T04:05:15;100630.78;;;16.52;60.53
64551;BME280;50945;44.472;-123.352;2022-09-16T04:07:42;100642.25;;;16.49;60.00
64551;BME280;50945;44.472;-123.352;2022-09-16T04:10:08;100628.69;;;16.47;60.37
64551;BME280;50945;44.472;-123.352;2022-09-16T04:12:37;100642.47;;;16.47;60.70
64551;BME280;50945;44.472;-123.352;2022-09-16T04:15:03;100648.84;;;16.48;60.03
64551;BME280;50945;44.472;-123.352;2022-09-16T04:17:33;100639.72;;;16.47;60.06
64551;BME280;50945;44.472;-123.352;2022-09-16T04:20:00;100639.50;;;16.49;60.11
64551;BME280;50945;44.472;-123.352;2022-09-16T04:22:30;100641.41;;;16.48;60.55
64551;BME280;50945;44.472;-123.352;2022-09-16T04:24:57;100644.16;;;16.48;60.16
64551;BME280;50945;44.472;-123.352;2022-09-16T04:27:23;100648.84;;;16.48;60.11
64551;BME280;50945;44.472;-123.352;2022-09-16T04:29:49;100643.53;;;16.46;60.72
64551;BME280;50945;44.472;-123.352;2022-09-16T04:32:16;100638.22;;;16.45;60.53
64551;BME280;50945;44.472;-123.352;2022-09-16T04:34:42;100639.53;;;16.42;60.33
64551;BME280;50945;44.472;-123.352;2022-09-16T04:37:09;100628.47;;;16.42;60.96
64551;BME280;50945;44.472;-123.352;2022-09-16T04:39:35;100634.84;;;16.43;60.96
64551;BME280;50945;44.472;-123.352;2022-09-16T04:42:01;100632.94;;;16.43;60.96
64551;BME280;50945;44.472;-123.352;2022-09-16T04:44:30;100635.06;;;16.41;60.73
64551;BME280;50945;44.472;-123.352;2022-09-16T04:46:57;100635.72;;;16.37;60.86
64551;BME280;50945;44.472;-123.352;2022-09-16T04:49:23;100638.47;;;16.37;60.76
64551;BME280;50945;44.472;-123.352;2022-09-16T04:51:50;100633.16;;;16.35;61.31
64551;BME280;50945;44.472;-123.352;2022-09-16T04:54:17;100636.16;;;16.33;60.80
64551;BME280;50945;44.472;-123.352;2022-09-16T04:56:44;100632.53;;;16.33;61.06
64551;BME280;50945;44.472;-123.352;2022-09-16T04:59:10;100641.88;;;16.32;61.05
64551;BME280;50945;44.472;-123.352;2022-09-16T05:01:39;100635.31;;;16.33;60.46
64551;BME280;50945;44.472;-123.352;2022-09-16T05:04:08;100629.16;;;16.31;60.63
64551;BME280;50945;44.472;-123.352;2022-09-16T05:06:37;100634.44;;;16.32;61.16
64551;BME280;50945;44.472;-123.352;2022-09-16T05:09:05;100628.06;;;16.32;60.52
64551;BME280;50945;44.472;-123.352;2022-09-16T05:11:35;100630.84;;;16.32;60.48
64551;BME280;50945;44.472;-123.352;2022-09-16T05:14:06;100634.44;;;16.32;60.38
64551;BME280;50945;44.472;-123.352;2022-09-16T05:16:33;100626.16;;;16.32;60.55
64551;BME280;50945;44.472;-123.352;2022-09-16T05:19:02;100633.38;;;16.33;60.67
64551;BME280;50945;44.472;-123.352;2022-09-16T05:21:32;100632.53;;;16.33;60.76
64551;BME280;50945;44.472;-123.352;2022-09-16T05:24:00;100628.06;;;16.32;60.39
64551;BME280;50945;44.472;-123.352;2022-09-16T05:26:29;100640.41;;;16.29;60.24
64551;BME280;50945;44.472;-123.352;2022-09-16T05:29:00;100637.66;;;16.29;60.17
64551;BME280;50945;44.472;-123.352;2022-09-16T05:31:32;100643.16;;;16.29;60.10
64551;BME280;50945;44.472;-123.352;2022-09-16T05:34:19;100634.25;;;16.27;60.98
64551;BME280;50945;44.472;-123.352;2022-09-16T05:36:47;100633.59;;;16.25;60.37
64551;BME280;50945;44.472;-123.352;2022-09-16T05:39:16;100635.31;;;16.26;59.97
64551;BME280;50945;44.472;-123.352;2022-09-16T05:41:47;100635.53;;;16.25;60.29
64551;BME280;50945;44.472;-123.352;2022-09-16T05:44:14;100634.91;;;16.23;60.26
64551;BME280;50945;44.472;-123.352;2022-09-16T05:46:41;100635.94;;;16.22;60.34
64551;BME280;50945;44.472;-123.352;2022-09-16T05:49:09;100642.75;;;16.19;60.35
64551;BME280;50945;44.472;-123.352;2022-09-16T05:51:37;100637.66;;;16.16;60.60
64551;BME280;50945;44.472;-123.352;2022-09-16T05:54:04;100648.06;;;16.14;60.28
64551;BME280;50945;44.472;-123.352;2022-09-16T05:56:31;100644.03;;;16.10;60.66
64551;BME280;50945;44.472;-123.352;2022-09-16T05:58:58;100646.59;;;16.05;60.57
64551;BME280;50945;44.472;-123.352;2022-09-16T06:01:29;100646.38;;;16.00;61.02
64551;BME280;50945;44.472;-123.352;2022-09-16T06:03:56;100647.47;;;15.92;61.19
64551;BME280;50945;44.472;-123.352;2022-09-16T06:08:52;100644.47;;;15.80;61.38
64551;BME280;50945;44.472;-123.352;2022-09-16T06:11:20;100643.59;;;15.73;61.81
64551;BME280;50945;44.472;-123.352;2022-09-16T06:13:53;100646.78;;;15.63;61.51
64551;BME280;50945;44.472;-123.352;2022-09-16T06:16:24;100644.03;;;15.56;61.86
64551;BME280;50945;44.472;-123.352;2022-09-16T06:18:52;100646.56;;;15.51;62.43
64551;BME280;50945;44.472;-123.352;2022-09-16T06:21:20;100650.78;;;15.47;61.76
64551;BME280;50945;44.472;-123.352;2022-09-16T06:23:46;100655.44;;;15.40;62.10
64551;BME280;50945;44.472;-123.352;2022-09-16T06:26:15;100652.25;;;15.23;62.54
64551;BME280;50945;44.472;-123.352;2022-09-16T06:28:43;100654.09;;;15.09;62.75
64551;BME280;50945;44.472;-123.352;2022-09-16T06:31:14;100657.25;;;14.99;63.20
64551;BME280;50945;44.472;-123.352;2022-09-16T06:33:41;100665.69;;;14.91;63.19
64551;BME280;50945;44.472;-123.352;2022-09-16T06:36:17;100661.22;;;14.83;63.35
64551;BME280;50945;44.472;-123.352;2022-09-16T06:38:44;100668.81;;;14.81;63.34
64551;BME280;50945;44.472;-123.352;2022-09-16T06:41:13;100671.56;;;14.81;63.03
64551;BME280;50945;44.472;-123.352;2022-09-16T06:43:41;100670.72;;;14.81;63.41
64551;BME280;50945;44.472;-123.352;2022-09-16T06:46:09;100676.63;;;14.78;63.25
64551;BME280;50945;44.472;-123.352;2022-09-16T06:48:47;100673.03;;;14.77;63.34
64551;BME280;50945;44.472;-123.352;2022-09-16T06:51:19;100678.13;;;14.80;62.93
64551;BME280;50945;44.472;-123.352;2022-09-16T06:53:48;100673.69;;;14.79;63.34
64551;BME280;50945;44.472;-123.352;2022-09-16T06:56:17;100679.63;;;14.76;62.99
64551;BME280;50945;44.472;-123.352;2022-09-16T06:58:46;100678.09;;;14.74;63.22
64551;BME280;50945;44.472;-123.352;2022-09-16T07:01:18;100683.38;;;14.69;63.78
64551;BME280;50945;44.472;-123.352;2022-09-16T07:03:47;100670.63;;;14.61;63.31
64551;BME280;50945;44.472;-123.352;2022-09-16T07:06:15;100673.94;;;14.56;64.06
64551;BME280;50945;44.472;-123.352;2022-09-16T07:08:44;100678.38;;;14.51;63.98
64551;BME280;50945;44.472;-123.352;2022-09-16T07:11:12;100676.44;;;14.44;64.15
64551;BME280;50945;44.472;-123.352;2022-09-16T07:13:40;100681.06;;;14.37;64.33
64551;BME280;50945;44.472;-123.352;2022-09-16T07:16:09;100685.03;;;14.35;64.40
64551;BME280;50945;44.472;-123.352;2022-09-16T07:18:36;100688.41;;;14.30;64.56
64551;BME280;50945;44.472;-123.352;2022-09-16T07:23:36;100682.47;;;14.26;64.57
64551;BME280;50945;44.472;-123.352;2022-09-16T07:26:20;100676.91;;;14.20;64.99
64551;BME280;50945;44.472;-123.352;2022-09-16T07:28:48;100683.66;;;14.17;64.74
64551;BME280;50945;44.472;-123.352;2022-09-16T07:31:20;100675.16;;;14.12;64.90
64551;BME280;50945;44.472;-123.352;2022-09-16T07:33:48;100677.00;;;14.05;65.10
64551;BME280;50945;44.472;-123.352;2022-09-16T07:36:20;100677.41;;;14.02;65.30
64551;BME280;50945;44.472;-123.352;2022-09-16T07:38:47;100683.50;;;13.97;65.39
64551;BME280;50945;44.472;-123.352;2022-09-16T07:41:17;100685.16;;;13.92;65.06
64551;BME280;50945;44.472;-123.352;2022-09-16T07:43:45;100689.56;;;13.86;65.53
64551;BME280;50945;44.472;-123.352;2022-09-16T07:46:13;100687.97;;;13.77;65.75
64551;BME280;50945;44.472;-123.352;2022-09-16T07:48:42;100684.72;;;13.66;66.25
64551;BME280;50945;44.472;-123.352;2022-09-16T07:51:11;100692.06;;;13.59;66.23
64551;BME280;50945;44.472;-123.352;2022-09-16T07:53:38;100687.97;;;13.55;66.36
64551;BME280;50945;44.472;-123.352;2022-09-16T07:56:17;100694.72;;;13.53;66.76
64551;BME280;50945;44.472;-123.352;2022-09-16T07:58:44;100701.44;;;13.50;66.17
64551;BME280;50945;44.472;-123.352;2022-09-16T08:01:13;100695.31;;;13.48;66.65
64551;BME280;50945;44.472;-123.352;2022-09-16T08:03:40;100693.44;;;13.48;66.30
64551;BME280;50945;44.472;-123.352;2022-09-16T08:06:09;100691.72;;;13.47;66.17
64551;BME280;50945;44.472;-123.352;2022-09-16T08:08:38;100688.53;;;13.44;66.46
64551;BME280;50945;44.472;-123.352;2022-09-16T08:11:05;100690.81;;;13.40;66.53
64551;BME280;50945;44.472;-123.352;2022-09-16T08:13:33;100686.94;;;13.35;66.63
64551;BME280;50945;44.472;-123.352;2022-09-16T08:16:03;100692.53;;;13.26;66.58
64551;BME280;50945;44.472;-123.352;2022-09-16T08:18:29;100683.63;;;13.24;66.94
64551;BME280;50945;44.472;-123.352;2022-09-16T08:20:56;100689.78;;;13.26;66.95
64551;BME280;50945;44.472;-123.352;2022-09-16T08:23:24;100693.16;;;13.28;66.72
64551;BME280;50945;44.472;-123.352;2022-09-16T08:25:57;100694.03;;;13.29;67.13
64551;BME280;50945;44.472;-123.352;2022-09-16T08:28:24;100687.50;;;13.30;67.03
64551;BME280;50945;44.472;-123.352;2022-09-16T08:30:51;100694.72;;;13.31;67.25
64551;BME280;50945;44.472;-123.352;2022-09-16T08:33:18;100690.06;;;13.31;66.84
64551;BME280;50945;44.472;-123.352;2022-09-16T08:38:33;100681.84;;;13.31;67.01
64551;BME280;50945;44.472;-123.352;2022-09-16T08:41:04;100684.59;;;13.31;66.92
64551;BME280;50945;44.472;-123.352;2022-09-16T08:44:02;100687.50;;;13.30;68.36
64551;BME280;50945;44.472;-123.352;2022-09-16T08:46:44;100694.88;;;13.29;68.50
64551;BME280;50945;44.472;-123.352;2022-09-16T08:49:31;100688.16;;;13.32;67.01
64551;BME280;50945;44.472;-123.352;2022-09-16T08:52:00;100690.91;;;13.32;66.82
64551;BME280;50945;44.472;-123.352;2022-09-16T08:54:45;100689.88;;;13.33;68.22
64551;BME280;50945;44.472;-123.352;2022-09-16T08:57:17;100693.81;;;13.30;70.92
64551;BME280;50945;44.472;-123.352;2022-09-16T08:59:50;100686.66;;;13.29;67.10
64551;BME280;50945;44.472;-123.352;2022-09-16T09:02:41;100689.22;;;13.31;68.19
64551;BME280;50945;44.472;-123.352;2022-09-16T09:10:30;100694.53;;;13.33;67.90
64551;BME280;50945;44.472;-123.352;2022-09-16T09:15:57;100700.50;;;13.36;67.53
64551;BME280;50945;44.472;-123.352;2022-09-16T09:22:01;100703.31;;;13.28;68.50
64551;BME280;50945;44.472;-123.352;2022-09-16T09:30:25;100717.47;;;13.10;68.11
64551;BME280;50945;44.472;-123.352;2022-09-16T09:35:37;100705.38;;;13.04;67.95
64551;BME280;50945;44.472;-123.352;2022-09-16T09:40:59;100706.13;;;12.98;68.57
64551;BME280;50945;44.472;-123.352;2022-09-16T09:43:52;100712.03;;;12.95;68.67
64551;BME280;50945;44.472;-123.352;2022-09-16T09:46:34;100710.50;;;12.92;69.44
64551;BME280;50945;44.472;-123.352;2022-09-16T09:49:40;100711.75;;;12.90;71.06
64551;BME280;50945;44.472;-123.352;2022-09-16T09:52:13;100709.00;;;12.90;68.82
64551;BME280;50945;44.472;-123.352;2022-09-16T09:54:47;100714.47;;;12.90;69.69
64551;BME280;50945;44.472;-123.352;2022-09-16T09:57:24;100713.41;;;12.91;69.57
64551;BME280;50945;44.472;-123.352;2022-09-16T10:00:15;100714.06;;;12.93;70.45
64551;BME280;50945;44.472;-123.352;2022-09-16T10:02:44;100712.84;;;12.96;69.22
64551;BME280;50945;44.472;-123.352;2022-09-16T10:05:25;100713.31;;;12.99;70.18
64551;BME280;50945;44.472;-123.352;2022-09-16T10:07:56;100712.06;;;13.02;69.02
64551;BME280;50945;44.472;-123.352;2022-09-16T10:10:26;100716.16;;;13.06;69.02
64551;BME280;50945;44.472;-123.352;2022-09-16T10:12:54;100723.34;;;13.07;69.27
64551;BME280;50945;44.472;-123.352;2022-09-16T10:15:31;100721.25;;;13.09;69.24
64551;BME280;50945;44.472;-123.352;2022-09-16T10:18:00;100713.66;;;13.11;68.85
64551;BME280;50945;44.472;-123.352;2022-09-16T10:20:34;100705.25;;;13.12;68.89
64551;BME280;50945;44.472;-123.352;2022-09-16T10:23:22;100700.44;;;13.15;71.11
64551;BME280;50945;44.472;-123.352;2022-09-16T10:26:05;100706.09;;;13.13;69.74
64551;BME280;50945;44.472;-123.352;2022-09-16T10:28:33;100699.75;;;13.12;69.31
64551;BME280;50945;44.472;-123.352;2022-09-16T10:31:00;100705.91;;;13.15;69.04
64551;BME280;50945;44.472;-123.352;2022-09-16T10:33:35;100699.38;;;13.16;69.02
64551;BME280;50945;44.472;-123.352;2022-09-16T10:36:05;100702.13;;;13.16;69.00
64551;BME280;50945;44.472;-123.352;2022-09-16T10:41:13;100711.19;;;13.16;69.29
64551;BME280;50945;44.472;-123.352;2022-09-16T10:43:50;100700.03;;;13.18;68.94
64551;BME280;50945;44.472;-123.352;2022-09-16T10:46:17;100714.63;;;13.18;69.02
64551;BME280;50945;44.472;-123.352;2022-09-16T10:48:45;100716.50;;;13.18;68.89
64551;BME280;50945;44.472;-123.352;2022-09-16T10:53:55;100719.69;;;13.21;69.00
64551;BME280;50945;44.472;-123.352;2022-09-16T10:56:33;100719.88;;;13.20;68.96
64551;BME280;50945;44.472;-123.352;2022-09-16T10:59:11;100716.94;;;13.21;69.74
64551;BME280;50945;44.472;-123.352;2022-09-16T11:05:22;100718.00;;;13.20;70.39
64551;BME280;50945;44.472;-123.352;2022-09-16T11:10:35;100723.50;;;13.20;69.56
64551;BME280;50945;44.472;-123.352;2022-09-16T11:25:59;100716.13;;;13.21;69.64
64551;BME280;50945;44.472;-123.352;2022-09-16T11:53:18;100722.44;;;13.21;70.21
64551;BME280;50945;44.472;-123.352;2022-09-16T11:59:29;100725.59;;;13.18;69.43
64551;BME280;50945;44.472;-123.352;2022-09-16T12:04:52;100728.13;;;13.20;69.46
64551;BME280;50945;44.472;-123.352;2022-09-16T12:07:30;100724.16;;;13.22;69.44
64551;BME280;50945;44.472;-123.352;2022-09-16T12:10:25;100726.72;;;13.24;70.08
64551;BME280;50945;44.472;-123.352;2022-09-16T12:13:23;100729.91;;;13.27;70.74
64551;BME280;50945;44.472;-123.352;2022-09-16T12:16:17;100732.47;;;13.29;69.83
64551;BME280;50945;44.472;-123.352;2022-09-16T12:18:55;100736.75;;;13.31;70.58
64551;BME280;50945;44.472;-123.352;2022-09-16T12:27:24;100739.13;;;13.35;69.78
64551;BME280;50945;44.472;-123.352;2022-09-16T12:29:59;100736.56;;;13.33;70.17
64551;BME280;50945;44.472;-123.352;2022-09-16T12:35:09;100743.72;;;13.34;69.78
64551;BME280;50945;44.472;-123.352;2022-09-16T12:37:50;100738.25;;;13.34;70.59
64551;BME280;50945;44.472;-123.352;2022-09-16T12:40:27;100744.41;;;13.36;69.92
64551;BME280;50945;44.472;-123.352;2022-09-16T12:46:43;100753.88;;;13.34;71.76
64551;BME280;50945;44.472;-123.352;2022-09-16T12:57:23;100758.88;;;13.30;70.92
64551;BME280;50945;44.472;-123.352;2022-09-16T13:02:53;100762.88;;;13.27;70.02
64551;BME280;50945;44.472;-123.352;2022-09-16T13:05:29;100763.91;;;13.26;70.10
64551;BME280;50945;44.472;-123.352;2022-09-16T13:07:58;100762.88;;;13.27;70.00
64551;BME280;50945;44.472;-123.352;2022-09-16T13:10:30;100765.44;;;13.29;69.98
64551;BME280;50945;44.472;-123.352;2022-09-16T13:13:00;100762.47;;;13.30;69.88
64551;BME280;50945;44.472;-123.352;2022-09-16T13:15:38;100756.81;;;13.32;70.17
64551;BME280;50945;44.472;-123.352;2022-09-16T13:20:40;100771.00;;;13.36;69.71
64551;BME280;50945;44.472;-123.352;2022-09-16T13:23:46;100763.81;;;13.35;72.71
64551;BME280;50945;44.472;-123.352;2022-09-16T13:26:07;100770.16;;;13.35;70.03
64551;BME280;50945;44.472;-123.352;2022-09-16T13:33:43;100779.06;;;13.37;69.83
64551;BME280;50945;44.472;-123.352;2022-09-16T13:38:48;100787.47;;;13.36;69.96
64551;BME280;50945;44.472;-123.352;2022-09-16T13:41:44;100781.34;;;13.34;70.83
64551;BME280;50945;44.472;-123.352;2022-09-16T13:44:38;100790.63;;;13.33;70.27
64551;BME280;50945;44.472;-123.352;2022-09-16T13:54:50;100808.28;;;13.30;70.41
64551;BME280;50945;44.472;-123.352;2022-09-16T14:00:25;100793.44;;;13.24;70.92
64551;BME280;50945;44.472;-123.352;2022-09-16T14:06:09;100797.91;;;13.25;71.70
64551;BME280;50945;44.472;-123.352;2022-09-16T14:14:12;100801.22;;;13.21;70.79
64551;BME280;50945;44.472;-123.352;2022-09-16T14:16:41;100803.31;;;13.19;70.71
64551;BME280;50945;44.472;-123.352;2022-09-16T14:19:27;100804.50;;;13.16;71.63
64551;BME280;50945;44.472;-123.352;2022-09-16T14:22:17;100809.34;;;13.14;72.62
64551;BME280;50945;44.472;-123.352;2022-09-16T14:24:46;100812.09;;;13.14;71.13
64551;BME280;50945;44.472;-123.352;2022-09-16T14:27:29;100814.84;;;13.14;71.23
64551;BME280;50945;44.472;-123.352;2022-09-16T14:30:01;100823.06;;;13.14;70.74
64551;BME280;50945;44.472;-123.352;2022-09-16T14:32:35;100818.47;;;13.15;70.64
64551;BME280;50945;44.472;-123.352;2022-09-16T14:35:18;100822.88;;;13.16;71.26
64551;BME280;50945;44.472;-123.352;2022-09-16T14:37:53;100828.19;;;13.17;70.67
64551;BME280;50945;44.472;-123.352;2022-09-16T14:40:22;100825.91;;;13.21;70.64
64551;BME280;50945;44.472;-123.352;2022-09-16T14:43:15;100826.38;;;13.24;71.54
64551;BME280;50945;44.472;-123.352;2022-09-16T14:45:49;100824.28;;;13.26;70.67
64551;BME280;50945;44.472;-123.352;2022-09-16T14:48:19;100826.50;;;13.31;70.45
64551;BME280;50945;44.472;-123.352;2022-09-16T14:50:48;100840.72;;;13.35;70.46
64551;BME280;50945;44.472;-123.352;2022-09-16T14:53:27;100841.38;;;13.37;70.23
64551;BME280;50945;44.472;-123.352;2022-09-16T14:55:55;100846.66;;;13.38;70.32
64551;BME280;50945;44.472;-123.352;2022-09-16T14:58:26;100851.97;;;13.40;70.18
64551;BME280;50945;44.472;-123.352;2022-09-16T15:01:04;100852.81;;;13.40;70.60
64551;BME280;50945;44.472;-123.352;2022-09-16T15:03:43;100858.31;;;13.40;70.40
64551;BME280;50945;44.472;-123.352;2022-09-16T15:06:16;100852.16;;;13.38;70.47
64551;BME280;50945;44.472;-123.352;2022-09-16T15:08:48;100857.47;;;13.40;70.60
64551;BME280;50945;44.472;-123.352;2022-09-16T15:11:21;100860.69;;;13.43;70.36
64551;BME280;50945;44.472;-123.352;2022-09-16T15:13:49;100857.16;;;13.49;70.23
64551;BME280;50945;44.472;-123.352;2022-09-16T15:16:19;100864.19;;;13.52;70.30
64551;BME280;50945;44.472;-123.352;2022-09-16T15:19:02;100867.75;;;13.53;70.90
64551;BME280;50945;44.472;-123.352;2022-09-16T15:21:36;100865.03;;;13.53;70.35
64551;BME280;50945;44.472;-123.352;2022-09-16T15:24:05;100863.56;;;13.57;69.93
64551;BME280;50945;44.472;-123.352;2022-09-16T15:26:42;100872.28;;;13.60;70.25
64551;BME280;50945;44.472;-123.352;2022-09-16T15:29:27;100862.63;;;13.64;70.66
64551;BME280;50945;44.472;-123.352;2022-09-16T15:32:14;100874.09;;;13.68;69.99
64551;BME280;50945;44.472;-123.352;2022-09-16T15:34:46;100869.72;;;13.74;70.00
64551;BME280;50945;44.472;-123.352;2022-09-16T15:37:33;100879.06;;;13.79;71.03
64551;BME280;50945;44.472;-123.352;2022-09-16T15:43:17;100868.69;;;13.96;69.90
64551;BME280;50945;44.472;-123.352;2022-09-16T15:46:20;100872.56;;;14.02;70.01
64551;BME280;50945;44.472;-123.352;2022-09-16T15:51:45;100865.28;;;14.16;69.07